sensor_id;sensor_type;location;lat;lon;timestamp;P1;durP1;ratioP1;P2;durP2;ratioP2
75774;SDS011;64505;51.458;7.556;2023-02-18T00:00:45;25.58;;;15.48;;
75774;SDS011;64505;51.458;7.556;2023-02-18T00:02:46;27.88;;;15.20;;
75774;SDS011;64505;51.458;7.556;2023-02-18T00:04:48;25.45;;;14.95;;
75774;SDS011;64505;51.458;7.556;2023-02-18T00:06:49;26.65;;;14.88;;
75774;SDS011;64505;51.458;7.556;2023-02-18T00:08:51;26.40;;;15.13;;
75774;SDS011;64505;51.458;7.556;2023-02-18T00:10:53;28.08;;;15.48;;
75774;SDS011;64505;51.458;7.556;2023-02-18T00:12:54;27.98;;;15.77;;
75774;SDS011;64505;51.458;7.556;2023-02-18T00:14:56;27.02;;;15.77;;
75774;SDS011;64505;51.458;7.556;2023-02-18T00:16:58;28.60;;;15.85;;
75774;SDS011;64505;51.458;7.556;2023-02-18T00:19:00;28.20;;;16.30;;
75774;SDS011;64505;51.458;7.556;2023-02-18T00:21:04;27.92;;;16.08;;
75774;SDS011;64505;51.458;7.556;2023-02-18T00:23:07;28.55;;;15.88;;
75774;SDS011;64505;51.458;7.556;2023-02-18T00:25:08;28.00;;;15.02;;
75774;SDS011;64505;51.458;7.556;2023-02-18T00:27:10;30.55;;;16.05;;
75774;SDS011;64505;51.458;7.556;2023-02-18T00:29:11;29.05;;;15.55;;
75774;SDS011;64505;51.458;7.556;2023-02-18T00:31:16;25.75;;;13.90;;
75774;SDS011;64505;51.458;7.556;2023-02-18T00:33:20;26.75;;;15.07;;
75774;SDS011;64505;51.458;7.556;2023-02-18T00:35:22;26.42;;;14.90;;
75774;SDS011;64505;51.458;7.556;2023-02-18T00:37:23;29.35;;;14.93;;
75774;SDS011;64505;51.458;7.556;2023-02-18T00:39:25;27.48;;;14.30;;
75774;SDS011;64505;51.458;7.556;2023-02-18T00:41:27;30.52;;;15.02;;
75774;SDS011;64505;51.458;7.556;2023-02-18T00:43:29;28.17;;;14.98;;
75774;SDS011;64505;51.458;7.556;2023-02-18T00:45:30;22.80;;;13.32;;
75774;SDS011;64505;51.458;7.556;2023-02-18T00:47:32;29.77;;;15.10;;
75774;SDS011;64505;51.458;7.556;2023-02-18T00:49:33;25.10;;;14.88;;
75774;SDS011;64505;51.458;7.556;2023-02-18T00:51:35;27.42;;;14.32;;
75774;SDS011;64505;51.458;7.556;2023-02-18T00:53:37;27.15;;;13.38;;
75774;SDS011;64505;51.458;7.556;2023-02-18T00:55:40;27.42;;;14.32;;
75774;SDS011;64505;51.458;7.556;2023-02-18T00:57:45;26.98;;;14.93;;
75774;SDS011;64505;51.458;7.556;2023-02-18T00:59:46;27.58;;;14.85;;
75774;SDS011;64505;51.458;7.556;2023-02-18T01:01:48;27.58;;;14.65;;
75774;SDS011;64505;51.458;7.556;2023-02-18T01:03:49;28.23;;;14.57;;
75774;SDS011;64505;51.458;7.556;2023-02-18T01:05:51;25.30;;;12.90;;
75774;SDS011;64505;51.458;7.556;2023-02-18T01:07:53;27.23;;;14.02;;
75774;SDS011;64505;51.458;7.556;2023-02-18T01:09:55;28.83;;;14.15;;
75774;SDS011;64505;51.458;7.556;2023-02-18T01:11:56;28.15;;;14.57;;
75774;SDS011;64505;51.458;7.556;2023-02-18T01:13:58;28.33;;;13.70;;
75774;SDS011;64505;51.458;7.556;2023-02-18T01:15:59;24.48;;;12.55;;
75774;SDS011;64505;51.458;7.556;2023-02-18T01:18:01;27.20;;;13.20;;
75774;SDS011;64505;51.458;7.556;2023-02-18T01:20:02;27.17;;;12.95;;
75774;SDS011;64505;51.458;7.556;2023-02-18T01:22:04;23.98;;;12.60;;
75774;SDS011;64505;51.458;7.556;2023-02-18T01:24:06;28.25;;;12.77;;
75774;SDS011;64505;51.458;7.556;2023-02-18T01:26:09;24.90;;;13.40;;
75774;SDS011;64505;51.458;7.556;2023-02-18T01:28:11;24.33;;;12.85;;
75774;SDS011;64505;51.458;7.556;2023-02-18T01:30:15;22.02;;;12.20;;
75774;SDS011;64505;51.458;7.556;2023-02-18T01:32:17;27.30;;;12.88;;
75774;SDS011;64505;51.458;7.556;2023-02-18T01:34:19;26.15;;;12.15;;
75774;SDS011;64505;51.458;7.556;2023-02-18T01:36:20;23.67;;;13.05;;
75774;SDS011;64505;51.458;7.556;2023-02-18T01:38:22;22.55;;;12.55;;
75774;SDS011;64505;51.458;7.556;2023-02-18T01:40:25;21.10;;;10.98;;
75774;SDS011;64505;51.458;7.556;2023-02-18T01:42:28;19.52;;;11.00;;
75774;SDS011;64505;51.458;7.556;2023-02-18T01:44:32;18.63;;;10.30;;
75774;SDS011;64505;51.458;7.556;2023-02-18T01:46:34;17.65;;;10.77;;
75774;SDS011;64505;51.458;7.556;2023-02-18T01:48:40;18.88;;;10.05;;
75774;SDS011;64505;51.458;7.556;2023-02-18T01:50:45;19.38;;;9.82;;
75774;SDS011;64505;51.458;7.556;2023-02-18T01:52:49;18.67;;;10.18;;
75774;SDS011;64505;51.458;7.556;2023-02-18T01:54:52;18.08;;;10.52;;
75774;SDS011;64505;51.458;7.556;2023-02-18T01:56:58;19.80;;;10.23;;
75774;SDS011;64505;51.458;7.556;2023-02-18T01:59:05;20.17;;;10.85;;
75774;SDS011;64505;51.458;7.556;2023-02-18T02:01:11;19.50;;;11.15;;
75774;SDS011;64505;51.458;7.556;2023-02-18T02:03:13;20.35;;;11.18;;
75774;SDS011;64505;51.458;7.556;2023-02-18T02:05:14;20.77;;;11.30;;
75774;SDS011;64505;51.458;7.556;2023-02-18T02:07:17;19.55;;;10.70;;
75774;SDS011;64505;51.458;7.556;2023-02-18T02:09:21;18.67;;;9.32;;
75774;SDS011;64505;51.458;7.556;2023-02-18T02:14:08;19.38;;;10.77;;
75774;SDS011;64505;51.458;7.556;2023-02-18T02:28:53;20.27;;;11.43;;
75774;SDS011;64505;51.458;7.556;2023-02-18T02:35:31;18.52;;;10.70;;
75774;SDS011;64505;51.458;7.556;2023-02-18T02:47:19;17.85;;;10.00;;
75774;SDS011;64505;51.458;7.556;2023-02-18T02:54:22;17.70;;;9.80;;
75774;SDS011;64505;51.458;7.556;2023-02-18T02:56:25;15.88;;;8.95;;
75774;SDS011;64505;51.458;7.556;2023-02-18T02:58:27;16.27;;;9.23;;
75774;SDS011;64505;51.458;7.556;2023-02-18T03:00:46;15.60;;;9.43;;
75774;SDS011;64505;51.458;7.556;2023-02-18T03:05:24;16.55;;;9.23;;
75774;SDS011;64505;51.458;7.556;2023-02-18T03:07:59;15.55;;;8.98;;
75774;SDS011;64505;51.458;7.556;2023-02-18T03:12:38;17.33;;;8.65;;
75774;SDS011;64505;51.458;7.556;2023-02-18T03:14:46;15.63;;;8.48;;
75774;SDS011;64505;51.458;7.556;2023-02-18T03:19:04;13.43;;;8.30;;
75774;SDS011;64505;51.458;7.556;2023-02-18T03:21:09;13.88;;;7.82;;
75774;SDS011;64505;51.458;7.556;2023-02-18T03:23:15;14.05;;;8.10;;
75774;SDS011;64505;51.458;7.556;2023-02-18T03:25:20;12.45;;;7.57;;
75774;SDS011;64505;51.458;7.556;2023-02-18T03:27:31;16.17;;;8.73;;
75774;SDS011;64505;51.458;7.556;2023-02-18T03:29:34;13.55;;;7.63;;
75774;SDS011;64505;51.458;7.556;2023-02-18T03:31:36;13.40;;;7.60;;
75774;SDS011;64505;51.458;7.556;2023-02-18T03:33:44;14.43;;;7.63;;
75774;SDS011;64505;51.458;7.556;2023-02-18T03:35:49;13.52;;;7.13;;
75774;SDS011;64505;51.458;7.556;2023-02-18T03:37:53;12.52;;;6.90;;
75774;SDS011;64505;51.458;7.556;2023-02-18T03:40:02;13.40;;;6.82;;
75774;SDS011;64505;51.458;7.556;2023-02-18T03:42:05;11.95;;;6.65;;
75774;SDS011;64505;51.458;7.556;2023-02-18T03:44:08;10.93;;;6.20;;
75774;SDS011;64505;51.458;7.556;2023-02-18T03:46:10;11.48;;;6.43;;
75774;SDS011;64505;51.458;7.556;2023-02-18T03:48:17;12.23;;;6.28;;
75774;SDS011;64505;51.458;7.556;2023-02-18T03:50:19;11.40;;;6.32;;
75774;SDS011;64505;51.458;7.556;2023-02-18T03:52:20;14.05;;;6.53;;
75774;SDS011;64505;51.458;7.556;2023-02-18T03:54:22;10.68;;;5.50;;
75774;SDS011;64505;51.458;7.556;2023-02-18T03:56:23;11.85;;;6.10;;
75774;SDS011;64505;51.458;7.556;2023-02-18T03:58:25;9.90;;;5.18;;
75774;SDS011;64505;51.458;7.556;2023-02-18T04:00:26;11.25;;;5.57;;
75774;SDS011;64505;51.458;7.556;2023-02-18T04:02:28;12.13;;;5.85;;
75774;SDS011;64505;51.458;7.556;2023-02-18T04:04:29;10.98;;;5.63;;
75774;SDS011;64505;51.458;7.556;2023-02-18T04:06:30;10.80;;;5.70;;
75774;SDS011;64505;51.458;7.556;2023-02-18T04:08:32;12.93;;;5.65;;
75774;SDS011;64505;51.458;7.556;2023-02-18T04:10:33;10.57;;;5.82;;
75774;SDS011;64505;51.458;7.556;2023-02-18T04:12:35;11.00;;;5.70;;
75774;SDS011;64505;51.458;7.556;2023-02-18T04:14:36;11.48;;;6.30;;
75774;SDS011;64505;51.458;7.556;2023-02-18T04:16:38;10.93;;;5.80;;
75774;SDS011;64505;51.458;7.556;2023-02-18T04:18:40;11.00;;;5.35;;
75774;SDS011;64505;51.458;7.556;2023-02-18T04:20:41;14.48;;;6.43;;
75774;SDS011;64505;51.458;7.556;2023-02-18T04:22:43;12.50;;;6.05;;
75774;SDS011;64505;51.458;7.556;2023-02-18T04:24:44;11.27;;;5.40;;
75774;SDS011;64505;51.458;7.556;2023-02-18T04:26:46;13.13;;;5.93;;
75774;SDS011;64505;51.458;7.556;2023-02-18T04:28:47;12.13;;;6.07;;
75774;SDS011;64505;51.458;7.556;2023-02-18T04:30:49;13.82;;;6.15;;
75774;SDS011;64505;51.458;7.556;2023-02-18T04:32:50;11.90;;;5.53;;
75774;SDS011;64505;51.458;7.556;2023-02-18T04:34:52;11.30;;;5.72;;
75774;SDS011;64505;51.458;7.556;2023-02-18T04:36:53;11.55;;;5.82;;
75774;SDS011;64505;51.458;7.556;2023-02-18T04:38:54;12.75;;;5.40;;
75774;SDS011;64505;51.458;7.556;2023-02-18T04:40:56;11.10;;;4.57;;
75774;SDS011;64505;51.458;7.556;2023-02-18T04:42:57;8.95;;;3.80;;
75774;SDS011;64505;51.458;7.556;2023-02-18T04:44:59;8.57;;;3.92;;
75774;SDS011;64505;51.458;7.556;2023-02-18T04:47:01;9.55;;;4.45;;
75774;SDS011;64505;51.458;7.556;2023-02-18T04:49:03;8.52;;;4.13;;
75774;SDS011;64505;51.458;7.556;2023-02-18T04:51:05;9.88;;;4.35;;
75774;SDS011;64505;51.458;7.556;2023-02-18T04:53:07;9.52;;;4.15;;
75774;SDS011;64505;51.458;7.556;2023-02-18T04:55:09;11.77;;;4.68;;
75774;SDS011;64505;51.458;7.556;2023-02-18T04:57:10;10.50;;;3.80;;
75774;SDS011;64505;51.458;7.556;2023-02-18T04:59:12;8.55;;;4.15;;
75774;SDS011;64505;51.458;7.556;2023-02-18T05:01:13;8.13;;;3.97;;
75774;SDS011;64505;51.458;7.556;2023-02-18T05:03:15;7.95;;;3.60;;
75774;SDS011;64505;51.458;7.556;2023-02-18T05:05:16;7.18;;;3.38;;
75774;SDS011;64505;51.458;7.556;2023-02-18T05:07:18;8.93;;;3.30;;
75774;SDS011;64505;51.458;7.556;2023-02-18T05:09:19;7.93;;;3.25;;
75774;SDS011;64505;51.458;7.556;2023-02-18T05:11:21;6.63;;;2.80;;
75774;SDS011;64505;51.458;7.556;2023-02-18T05:13:22;5.80;;;2.40;;
75774;SDS011;64505;51.458;7.556;2023-02-18T05:15:24;5.80;;;2.38;;
75774;SDS011;64505;51.458;7.556;2023-02-18T05:17:25;6.03;;;2.55;;
75774;SDS011;64505;51.458;7.556;2023-02-18T05:19:27;5.47;;;2.13;;
75774;SDS011;64505;51.458;7.556;2023-02-18T05:21:28;6.38;;;2.35;;
75774;SDS011;64505;51.458;7.556;2023-02-18T05:23:29;4.95;;;1.90;;
75774;SDS011;64505;51.458;7.556;2023-02-18T05:25:31;3.70;;;1.80;;
75774;SDS011;64505;51.458;7.556;2023-02-18T05:27:32;4.07;;;1.55;;
75774;SDS011;64505;51.458;7.556;2023-02-18T05:29:34;3.83;;;1.45;;
75774;SDS011;64505;51.458;7.556;2023-02-18T05:31:35;3.80;;;1.42;;
75774;SDS011;64505;51.458;7.556;2023-02-18T05:33:38;3.10;;;1.33;;
75774;SDS011;64505;51.458;7.556;2023-02-18T05:35:40;3.25;;;1.05;;
75774;SDS011;64505;51.458;7.556;2023-02-18T05:37:41;2.35;;;1.00;;
75774;SDS011;64505;51.458;7.556;2023-02-18T05:39:43;2.90;;;1.00;;
75774;SDS011;64505;51.458;7.556;2023-02-18T05:41:45;2.80;;;1.15;;
75774;SDS011;64505;51.458;7.556;2023-02-18T05:43:46;3.65;;;1.30;;
75774;SDS011;64505;51.458;7.556;2023-02-18T05:46:06;2.60;;;1.00;;
75774;SDS011;64505;51.458;7.556;2023-02-18T05:48:08;2.60;;;1.10;;
75774;SDS011;64505;51.458;7.556;2023-02-18T05:50:10;2.50;;;1.00;;
75774;SDS011;64505;51.458;7.556;2023-02-18T05:52:11;1.77;;;0.65;;
75774;SDS011;64505;51.458;7.556;2023-02-18T05:54:13;1.70;;;0.70;;
75774;SDS011;64505;51.458;7.556;2023-02-18T05:56:14;2.55;;;0.90;;
75774;SDS011;64505;51.458;7.556;2023-02-18T05:58:15;1.70;;;0.90;;
75774;SDS011;64505;51.458;7.556;2023-02-18T06:00:17;1.48;;;0.60;;
75774;SDS011;64505;51.458;7.556;2023-02-18T06:02:19;1.38;;;0.60;;
75774;SDS011;64505;51.458;7.556;2023-02-18T06:04:20;1.63;;;0.70;;
75774;SDS011;64505;51.458;7.556;2023-02-18T06:06:22;1.60;;;0.80;;
75774;SDS011;64505;51.458;7.556;2023-02-18T06:08:24;1.77;;;0.77;;
75774;SDS011;64505;51.458;7.556;2023-02-18T06:10:25;2.38;;;1.00;;
75774;SDS011;64505;51.458;7.556;2023-02-18T06:12:26;1.70;;;0.70;;
75774;SDS011;64505;51.458;7.556;2023-02-18T06:14:28;1.25;;;0.70;;
75774;SDS011;64505;51.458;7.556;2023-02-18T06:16:29;2.20;;;1.15;;
75774;SDS011;64505;51.458;7.556;2023-02-18T06:18:31;2.30;;;1.00;;
75774;SDS011;64505;51.458;7.556;2023-02-18T06:20:33;1.70;;;0.80;;
75774;SDS011;64505;51.458;7.556;2023-02-18T06:22:34;2.25;;;0.73;;
75774;SDS011;64505;51.458;7.556;2023-02-18T06:24:36;2.05;;;0.93;;
75774;SDS011;64505;51.458;7.556;2023-02-18T06:26:37;2.13;;;0.88;;
75774;SDS011;64505;51.458;7.556;2023-02-18T06:28:39;1.65;;;0.80;;
75774;SDS011;64505;51.458;7.556;2023-02-18T06:30:40;2.42;;;0.98;;
75774;SDS011;64505;51.458;7.556;2023-02-18T06:32:42;2.65;;;1.08;;
75774;SDS011;64505;51.458;7.556;2023-02-18T06:34:43;2.42;;;1.05;;
75774;SDS011;64505;51.458;7.556;2023-02-18T06:36:45;1.83;;;0.95;;
75774;SDS011;64505;51.458;7.556;2023-02-18T06:38:46;1.85;;;0.90;;
75774;SDS011;64505;51.458;7.556;2023-02-18T06:40:47;2.17;;;1.02;;
75774;SDS011;64505;51.458;7.556;2023-02-18T06:42:49;2.80;;;1.20;;
75774;SDS011;64505;51.458;7.556;2023-02-18T06:44:50;2.20;;;0.90;;
75774;SDS011;64505;51.458;7.556;2023-02-18T06:46:52;2.67;;;1.10;;
75774;SDS011;64505;51.458;7.556;2023-02-18T06:48:53;2.28;;;1.17;;
75774;SDS011;64505;51.458;7.556;2023-02-18T06:50:55;2.67;;;1.10;;
75774;SDS011;64505;51.458;7.556;2023-02-18T06:52:56;2.90;;;1.23;;
75774;SDS011;64505;51.458;7.556;2023-02-18T06:54:59;3.10;;;1.30;;
75774;SDS011;64505;51.458;7.556;2023-02-18T06:57:01;2.63;;;1.20;;
75774;SDS011;64505;51.458;7.556;2023-02-18T06:59:02;3.50;;;1.50;;
75774;SDS011;64505;51.458;7.556;2023-02-18T07:01:04;2.67;;;1.15;;
75774;SDS011;64505;51.458;7.556;2023-02-18T07:03:06;2.50;;;1.13;;
75774;SDS011;64505;51.458;7.556;2023-02-18T07:05:08;2.78;;;1.30;;
75774;SDS011;64505;51.458;7.556;2023-02-18T07:07:09;2.28;;;0.93;;
75774;SDS011;64505;51.458;7.556;2023-02-18T07:09:10;2.25;;;1.20;;
75774;SDS011;64505;51.458;7.556;2023-02-18T07:11:12;2.83;;;1.35;;
75774;SDS011;64505;51.458;7.556;2023-02-18T07:13:13;2.25;;;1.10;;
75774;SDS011;64505;51.458;7.556;2023-02-18T07:15:15;2.85;;;1.27;;
75774;SDS011;64505;51.458;7.556;2023-02-18T07:17:17;2.83;;;1.15;;
75774;SDS011;64505;51.458;7.556;2023-02-18T07:19:19;2.40;;;1.10;;
75774;SDS011;64505;51.458;7.556;2023-02-18T07:21:20;2.70;;;1.25;;
75774;SDS011;64505;51.458;7.556;2023-02-18T07:23:21;2.40;;;0.95;;
75774;SDS011;64505;51.458;7.556;2023-02-18T07:25:23;3.03;;;1.55;;
75774;SDS011;64505;51.458;7.556;2023-02-18T07:27:25;3.15;;;0.98;;
75774;SDS011;64505;51.458;7.556;2023-02-18T07:29:27;2.58;;;1.23;;
75774;SDS011;64505;51.458;7.556;2023-02-18T07:31:28;2.22;;;1.13;;
75774;SDS011;64505;51.458;7.556;2023-02-18T07:33:30;3.33;;;1.50;;
75774;SDS011;64505;51.458;7.556;2023-02-18T07:35:31;3.67;;;1.65;;
75774;SDS011;64505;51.458;7.556;2023-02-18T07:37:33;2.70;;;1.30;;
75774;SDS011;64505;51.458;7.556;2023-02-18T07:39:35;3.33;;;1.73;;
75774;SDS011;64505;51.458;7.556;2023-02-18T07:41:39;4.30;;;1.67;;
75774;SDS011;64505;51.458;7.556;2023-02-18T07:43:40;3.83;;;1.88;;
75774;SDS011;64505;51.458;7.556;2023-02-18T07:45:42;4.28;;;2.22;;
75774;SDS011;64505;51.458;7.556;2023-02-18T07:47:43;5.35;;;2.53;;
75774;SDS011;64505;51.458;7.556;2023-02-18T07:49:45;3.63;;;1.95;;
75774;SDS011;64505;51.458;7.556;2023-02-18T07:51:48;5.10;;;2.28;;
75774;SDS011;64505;51.458;7.556;2023-02-18T07:53:50;3.53;;;1.55;;
75774;SDS011;64505;51.458;7.556;2023-02-18T07:55:51;3.22;;;1.80;;
75774;SDS011;64505;51.458;7.556;2023-02-18T07:57:53;3.58;;;1.60;;
75774;SDS011;64505;51.458;7.556;2023-02-18T07:59:57;3.55;;;1.65;;
75774;SDS011;64505;51.458;7.556;2023-02-18T08:01:59;3.08;;;1.65;;
75774;SDS011;64505;51.458;7.556;2023-02-18T08:04:00;3.25;;;1.40;;
75774;SDS011;64505;51.458;7.556;2023-02-18T08:06:02;2.50;;;1.42;;
75774;SDS011;64505;51.458;7.556;2023-02-18T08:08:05;3.25;;;1.60;;
75774;SDS011;64505;51.458;7.556;2023-02-18T08:10:07;3.08;;;1.25;;
75774;SDS011;64505;51.458;7.556;2023-02-18T08:12:08;3.40;;;1.10;;
75774;SDS011;64505;51.458;7.556;2023-02-18T08:14:10;3.10;;;1.40;;
75774;SDS011;64505;51.458;7.556;2023-02-18T08:16:12;2.92;;;1.40;;
75774;SDS011;64505;51.458;7.556;2023-02-18T08:18:17;2.90;;;1.23;;
75774;SDS011;64505;51.458;7.556;2023-02-18T08:20:21;2.22;;;1.15;;
75774;SDS011;64505;51.458;7.556;2023-02-18T08:22:22;2.65;;;1.25;;
75774;SDS011;64505;51.458;7.556;2023-02-18T08:24:23;2.78;;;1.02;;
75774;SDS011;64505;51.458;7.556;2023-02-18T08:26:25;2.28;;;1.13;;
75774;SDS011;64505;51.458;7.556;2023-02-18T08:28:27;2.17;;;1.20;;
75774;SDS011;64505;51.458;7.556;2023-02-18T08:30:28;2.50;;;1.13;;
75774;SDS011;64505;51.458;7.556;2023-02-18T08:32:30;2.38;;;1.10;;
75774;SDS011;64505;51.458;7.556;2023-02-18T08:34:31;3.13;;;1.40;;
75774;SDS011;64505;51.458;7.556;2023-02-18T08:36:32;3.13;;;1.42;;
75774;SDS011;64505;51.458;7.556;2023-02-18T08:38:34;3.25;;;1.45;;
75774;SDS011;64505;51.458;7.556;2023-02-18T08:40:35;3.22;;;1.45;;
75774;SDS011;64505;51.458;7.556;2023-02-18T08:42:37;2.60;;;1.30;;
75774;SDS011;64505;51.458;7.556;2023-02-18T08:44:39;3.75;;;1.45;;
75774;SDS011;64505;51.458;7.556;2023-02-18T08:46:41;2.30;;;1.10;;
75774;SDS011;64505;51.458;7.556;2023-02-18T08:48:43;2.15;;;1.15;;
75774;SDS011;64505;51.458;7.556;2023-02-18T08:50:44;2.78;;;1.27;;
75774;SDS011;64505;51.458;7.556;2023-02-18T08:52:46;2.47;;;1.08;;
75774;SDS011;64505;51.458;7.556;2023-02-18T08:54:47;2.00;;;1.00;;
75774;SDS011;64505;51.458;7.556;2023-02-18T08:56:52;3.97;;;1.10;;
75774;SDS011;64505;51.458;7.556;2023-02-18T08:58:55;2.28;;;0.93;;
75774;SDS011;64505;51.458;7.556;2023-02-18T09:01:00;1.92;;;0.95;;
75774;SDS011;64505;51.458;7.556;2023-02-18T09:03:02;1.38;;;0.77;;
75774;SDS011;64505;51.458;7.556;2023-02-18T09:05:04;2.67;;;0.95;;
75774;SDS011;64505;51.458;7.556;2023-02-18T09:07:06;1.83;;;0.73;;
75774;SDS011;64505;51.458;7.556;2023-02-18T09:09:07;1.73;;;0.77;;
75774;SDS011;64505;51.458;7.556;2023-02-18T09:11:09;1.75;;;0.85;;
75774;SDS011;64505;51.458;7.556;2023-02-18T09:13:11;1.05;;;0.70;;
75774;SDS011;64505;51.458;7.556;2023-02-18T09:15:12;1.35;;;0.90;;
75774;SDS011;64505;51.458;7.556;2023-02-18T09:17:14;2.17;;;0.63;;
75774;SDS011;64505;51.458;7.556;2023-02-18T09:19:16;2.80;;;1.00;;
75774;SDS011;64505;51.458;7.556;2023-02-18T09:21:18;2.40;;;1.10;;
75774;SDS011;64505;51.458;7.556;2023-02-18T09:23:20;3.92;;;1.00;;
75774;SDS011;64505;51.458;7.556;2023-02-18T09:25:22;1.40;;;0.73;;
75774;SDS011;64505;51.458;7.556;2023-02-18T09:27:23;3.90;;;1.00;;
75774;SDS011;64505;51.458;7.556;2023-02-18T09:29:25;2.80;;;1.25;;
75774;SDS011;64505;51.458;7.556;2023-02-18T09:31:27;5.97;;;1.35;;
75774;SDS011;64505;51.458;7.556;2023-02-18T09:33:29;2.58;;;1.20;;
75774;SDS011;64505;51.458;7.556;2023-02-18T09:35:30;3.38;;;1.30;;
75774;SDS011;64505;51.458;7.556;2023-02-18T09:37:32;3.03;;;1.08;;
75774;SDS011;64505;51.458;7.556;2023-02-18T09:39:33;3.28;;;1.00;;
75774;SDS011;64505;51.458;7.556;2023-02-18T09:41:40;7.25;;;1.55;;
75774;SDS011;64505;51.458;7.556;2023-02-18T09:43:47;5.18;;;1.10;;
75774;SDS011;64505;51.458;7.556;2023-02-18T09:45:51;4.32;;;1.30;;
75774;SDS011;64505;51.458;7.556;2023-02-18T09:47:54;6.68;;;1.60;;
75774;SDS011;64505;51.458;7.556;2023-02-18T09:49:57;7.22;;;1.60;;
75774;SDS011;64505;51.458;7.556;2023-02-18T09:52:11;7.53;;;1.52;;
75774;SDS011;64505;51.458;7.556;2023-02-18T09:54:17;4.65;;;1.40;;
75774;SDS011;64505;51.458;7.556;2023-02-18T09:56:30;3.28;;;1.38;;
75774;SDS011;64505;51.458;7.556;2023-02-18T09:58:34;5.80;;;1.55;;
75774;SDS011;64505;51.458;7.556;2023-02-18T10:00:37;6.05;;;1.73;;
75774;SDS011;64505;51.458;7.556;2023-02-18T10:02:52;6.68;;;1.80;;
75774;SDS011;64505;51.458;7.556;2023-02-18T10:04:56;6.10;;;1.70;;
75774;SDS011;64505;51.458;7.556;2023-02-18T10:06:58;6.55;;;1.70;;
75774;SDS011;64505;51.458;7.556;2023-02-18T10:09:04;7.70;;;2.13;;
75774;SDS011;64505;51.458;7.556;2023-02-18T10:11:36;5.07;;;1.90;;
75774;SDS011;64505;51.458;7.556;2023-02-18T10:13:41;6.75;;;1.63;;
75774;SDS011;64505;51.458;7.556;2023-02-18T10:15:45;5.60;;;2.13;;
75774;SDS011;64505;51.458;7.556;2023-02-18T10:17:47;5.60;;;1.67;;
75774;SDS011;64505;51.458;7.556;2023-02-18T10:19:49;8.00;;;1.90;;
75774;SDS011;64505;51.458;7.556;2023-02-18T10:21:52;7.00;;;2.10;;
75774;SDS011;64505;51.458;7.556;2023-02-18T10:24:11;9.43;;;1.92;;
75774;SDS011;64505;51.458;7.556;2023-02-18T10:26:15;5.22;;;1.48;;
75774;SDS011;64505;51.458;7.556;2023-02-18T10:28:18;7.97;;;1.88;;
75774;SDS011;64505;51.458;7.556;2023-02-18T10:30:30;6.35;;;2.17;;
75774;SDS011;64505;51.458;7.556;2023-02-18T10:32:36;7.07;;;1.90;;
75774;SDS011;64505;51.458;7.556;2023-02-18T10:37:06;8.32;;;2.15;;
75774;SDS011;64505;51.458;7.556;2023-02-18T10:39:29;5.97;;;2.15;;
75774;SDS011;64505;51.458;7.556;2023-02-18T10:46:20;10.73;;;2.28;;
75774;SDS011;64505;51.458;7.556;2023-02-18T10:50:52;5.18;;;1.90;;
75774;SDS011;64505;51.458;7.556;2023-02-18T10:52:56;5.82;;;2.13;;
75774;SDS011;64505;51.458;7.556;2023-02-18T10:57:09;5.88;;;1.90;;
75774;SDS011;64505;51.458;7.556;2023-02-18T10:59:19;6.70;;;1.90;;
75774;SDS011;64505;51.458;7.556;2023-02-18T11:01:23;7.55;;;2.65;;
75774;SDS011;64505;51.458;7.556;2023-02-18T11:03:25;10.52;;;2.78;;
75774;SDS011;64505;51.458;7.556;2023-02-18T11:05:39;6.53;;;2.45;;
75774;SDS011;64505;51.458;7.556;2023-02-18T11:07:43;7.55;;;2.10;;
75774;SDS011;64505;51.458;7.556;2023-02-18T11:09:52;7.68;;;1.92;;
75774;SDS011;64505;51.458;7.556;2023-02-18T11:11:59;5.95;;;2.33;;
75774;SDS011;64505;51.458;7.556;2023-02-18T11:14:09;5.82;;;2.22;;
75774;SDS011;64505;51.458;7.556;2023-02-18T11:16:16;6.90;;;2.03;;
75774;SDS011;64505;51.458;7.556;2023-02-18T11:18:40;9.50;;;2.00;;
75774;SDS011;64505;51.458;7.556;2023-02-18T11:20:43;7.97;;;2.13;;
75774;SDS011;64505;51.458;7.556;2023-02-18T11:23:18;6.13;;;1.63;;
75774;SDS011;64505;51.458;7.556;2023-02-18T11:25:21;4.93;;;1.85;;
75774;SDS011;64505;51.458;7.556;2023-02-18T11:29:32;6.10;;;1.80;;
75774;SDS011;64505;51.458;7.556;2023-02-18T11:31:59;8.73;;;1.83;;
75774;SDS011;64505;51.458;7.556;2023-02-18T11:34:01;7.70;;;2.30;;
75774;SDS011;64505;51.458;7.556;2023-02-18T11:38:25;5.55;;;2.03;;
75774;SDS011;64505;51.458;7.556;2023-02-18T11:40:30;3.58;;;1.65;;
75774;SDS011;64505;51.458;7.556;2023-02-18T11:42:34;4.60;;;1.42;;
75774;SDS011;64505;51.458;7.556;2023-02-18T11:44:36;6.72;;;1.60;;
75774;SDS011;64505;51.458;7.556;2023-02-18T11:46:40;4.13;;;1.63;;
75774;SDS011;64505;51.458;7.556;2023-02-18T11:49:10;3.83;;;1.67;;
75774;SDS011;64505;51.458;7.556;2023-02-18T11:51:26;4.20;;;1.70;;
75774;SDS011;64505;51.458;7.556;2023-02-18T11:53:36;5.18;;;1.50;;
75774;SDS011;64505;51.458;7.556;2023-02-18T11:55:37;4.40;;;1.30;;
75774;SDS011;64505;51.458;7.556;2023-02-18T11:57:58;7.43;;;1.58;;
75774;SDS011;64505;51.458;7.556;2023-02-18T12:00:02;4.30;;;1.10;;
75774;SDS011;64505;51.458;7.556;2023-02-18T12:05:13;3.75;;;1.05;;
75774;SDS011;64505;51.458;7.556;2023-02-18T12:07:48;2.35;;;1.00;;
75774;SDS011;64505;51.458;7.556;2023-02-18T12:09:54;2.75;;;0.98;;
75774;SDS011;64505;51.458;7.556;2023-02-18T12:11:59;2.50;;;0.77;;
75774;SDS011;64505;51.458;7.556;2023-02-18T12:16:38;2.95;;;0.90;;
75774;SDS011;64505;51.458;7.556;2023-02-18T12:23:10;2.97;;;0.75;;
75774;SDS011;64505;51.458;7.556;2023-02-18T12:25:39;3.78;;;1.10;;
75774;SDS011;64505;51.458;7.556;2023-02-18T12:30:21;2.70;;;0.90;;
75774;SDS011;64505;51.458;7.556;2023-02-18T12:32:40;1.95;;;0.90;;
75774;SDS011;64505;51.458;7.556;2023-02-18T12:34:57;2.00;;;0.80;;
75774;SDS011;64505;51.458;7.556;2023-02-18T12:42:26;3.03;;;0.98;;
75774;SDS011;64505;51.458;7.556;2023-02-18T12:45:00;2.90;;;1.25;;
75774;SDS011;64505;51.458;7.556;2023-02-18T12:49:44;2.78;;;1.10;;
75774;SDS011;64505;51.458;7.556;2023-02-18T13:06:18;1.40;;;0.80;;
75774;SDS011;64505;51.458;7.556;2023-02-18T13:08:47;3.25;;;1.25;;
75774;SDS011;64505;51.458;7.556;2023-02-18T13:13:19;4.20;;;1.40;;
75774;SDS011;64505;51.458;7.556;2023-02-18T13:15:30;3.33;;;1.27;;
75774;SDS011;64505;51.458;7.556;2023-02-18T13:17:34;3.15;;;1.27;;
75774;SDS011;64505;51.458;7.556;2023-02-18T13:21:46;2.83;;;1.20;;
75774;SDS011;64505;51.458;7.556;2023-02-18T13:23:56;3.40;;;1.30;;
75774;SDS011;64505;51.458;7.556;2023-02-18T13:26:02;4.30;;;1.75;;
75774;SDS011;64505;51.458;7.556;2023-02-18T13:31:34;4.07;;;1.95;;
75774;SDS011;64505;51.458;7.556;2023-02-18T13:35:23;4.85;;;2.10;;
75774;SDS011;64505;51.458;7.556;2023-02-18T13:39:35;4.03;;;1.98;;
75774;SDS011;64505;51.458;7.556;2023-02-18T13:41:39;5.78;;;1.83;;
75774;SDS011;64505;51.458;7.556;2023-02-18T13:43:41;3.83;;;1.83;;
75774;SDS011;64505;51.458;7.556;2023-02-18T13:48:22;4.72;;;1.80;;
75774;SDS011;64505;51.458;7.556;2023-02-18T13:50:29;3.58;;;1.90;;
75774;SDS011;64505;51.458;7.556;2023-02-18T13:52:32;4.47;;;2.10;;
75774;SDS011;64505;51.458;7.556;2023-02-18T13:54:39;5.15;;;1.90;;
75774;SDS011;64505;51.458;7.556;2023-02-18T13:56:45;3.53;;;1.80;;
75774;SDS011;64505;51.458;7.556;2023-02-18T14:01:21;3.03;;;1.27;;
75774;SDS011;64505;51.458;7.556;2023-02-18T14:05:44;4.82;;;2.25;;
75774;SDS011;64505;51.458;7.556;2023-02-18T14:07:49;4.30;;;1.83;;
75774;SDS011;64505;51.458;7.556;2023-02-18T14:09:54;4.32;;;2.03;;
75774;SDS011;64505;51.458;7.556;2023-02-18T14:12:14;3.45;;;1.70;;
75774;SDS011;64505;51.458;7.556;2023-02-18T14:16:26;5.32;;;2.05;;